createdAt,value
2022-12-17T00:05:08.186Z,-2.7
2022-12-17T00:10:39.830Z,-2.85
2022-12-17T00:16:11.420Z,-3.01
2022-12-17T00:21:43.107Z,-3.1
2022-12-17T00:27:15.228Z,-3.1
2022-12-17T00:32:46.527Z,-3.14
2022-12-17T00:38:18.274Z,-3.17
2022-12-17T00:43:50.017Z,-3.21
2022-12-17T00:49:28.106Z,-3.22
2022-12-17T00:54:59.999Z,-3.2
2022-12-17T01:00:31.751Z,-3.22
2022-12-17T01:06:03.211Z,-3.2
2022-12-17T01:11:35.298Z,-3.23
2022-12-17T01:17:06.798Z,-3.31
2022-12-17T01:22:38.360Z,-3.33
2022-12-17T01:28:10.085Z,-3.35
2022-12-17T01:33:41.834Z,-3.37
2022-12-17T01:39:13.618Z,-3.47
2022-12-17T01:44:45.292Z,-3.58
2022-12-17T01:50:23.626Z,-3.6
2022-12-17T01:55:55.371Z,-3.63
2022-12-17T02:01:27.287Z,-3.68
2022-12-17T02:06:58.570Z,-3.67
2022-12-17T02:12:30.517Z,-3.67
2022-12-17T02:18:01.985Z,-3.67
2022-12-17T02:23:34.144Z,-3.75
2022-12-17T02:29:05.498Z,-3.89
2022-12-17T02:34:37.398Z,-3.89
2022-12-17T02:40:08.954Z,-3.81
2022-12-17T02:45:40.656Z,-3.77
2022-12-17T02:51:16.788Z,-3.81
2022-12-17T02:56:48.697Z,-3.76
2022-12-17T03:02:20.549Z,-3.8
2022-12-17T03:07:51.964Z,-3.83
2022-12-17T03:13:23.862Z,-3.9
2022-12-17T03:18:55.335Z,-3.85
2022-12-17T03:24:27.098Z,-3.66
2022-12-17T03:29:58.853Z,-3.7
2022-12-17T03:35:30.715Z,-3.46
2022-12-17T03:41:02.252Z,-3.43
2022-12-17T03:46:34.271Z,-4.17
2022-12-17T03:52:12.304Z,-4.1
2022-12-17T03:57:43.992Z,-3.62
2022-12-17T04:03:15.624Z,-3.52
2022-12-17T04:08:47.496Z,-3.54
2022-12-17T04:14:19.243Z,-3.63
2022-12-17T04:19:50.867Z,-3.57
2022-12-17T04:25:23.074Z,-3.42
2022-12-17T04:30:54.336Z,-3.58
2022-12-17T04:36:25.837Z,-3.44
2022-12-17T04:41:57.750Z,-3.41
2022-12-17T04:47:29.311Z,-3.51
2022-12-17T04:53:05.632Z,-3.41
2022-12-17T04:58:37.139Z,-3.45
2022-12-17T05:04:08.915Z,-3.63
2022-12-17T05:09:40.844Z,-3.31
2022-12-17T05:15:12.641Z,-3.34
2022-12-17T05:20:44.091Z,-3.93
2022-12-17T05:26:15.991Z,-3.9
2022-12-17T05:31:47.686Z,-3.82
2022-12-17T05:37:19.238Z,-3.28
2022-12-17T05:42:50.939Z,-3.23
2022-12-17T05:48:22.686Z,-3.9
2022-12-17T05:53:58.822Z,-3.75
2022-12-17T05:59:30.504Z,-3.65
2022-12-17T06:05:02.738Z,-3.99
2022-12-17T06:10:34.175Z,-3.64
2022-12-17T06:16:05.861Z,-3.32
2022-12-17T06:21:37.378Z,-3.2
2022-12-17T06:27:09.102Z,-3.43
2022-12-17T06:32:40.779Z,-3.1
2022-12-17T06:38:12.583Z,-3.62
2022-12-17T06:43:44.426Z,-2.95
2022-12-17T06:49:16.016Z,-3.01
2022-12-17T06:54:54.338Z,-3.36
2022-12-17T07:00:26.011Z,-3.21
2022-12-17T07:05:57.562Z,-3.05
2022-12-17T07:11:29.298Z,-3.4
2022-12-17T07:17:01.238Z,-3.38
2022-12-17T07:22:33.011Z,-3.26
2022-12-17T07:28:04.698Z,-3.02
2022-12-17T07:33:36.594Z,-2.98
2022-12-17T07:39:08.003Z,-2.86
2022-12-17T07:44:39.893Z,-3.13
2022-12-17T07:50:11.659Z,-3.04
2022-12-17T07:55:47.579Z,-3.53
2022-12-17T08:01:19.329Z,-3.26
2022-12-17T08:06:52.992Z,-3.26
2022-12-17T08:12:22.770Z,-2.92
2022-12-17T08:17:54.483Z,-2.62
2022-12-17T08:23:26.182Z,-2.85
2022-12-17T08:28:57.899Z,-3.23
2022-12-17T08:34:29.771Z,-3.58
2022-12-17T08:40:01.390Z,-3.6
2022-12-17T08:45:33.155Z,-3.27
2022-12-17T08:51:04.766Z,-2.98
2022-12-17T08:56:40.933Z,-2.71
2022-12-17T09:02:12.842Z,-2.29
2022-12-17T09:07:44.543Z,-2.4
2022-12-17T09:13:16.103Z,-2.35
2022-12-17T09:18:48.060Z,-2.47
2022-12-17T09:24:19.673Z,-2.99
2022-12-17T09:29:51.422Z,-2.57
2022-12-17T09:35:23.157Z,-2.53
2022-12-17T09:40:54.706Z,-2.46
2022-12-17T09:46:26.613Z,-2.37
2022-12-17T09:51:58.314Z,-2.48
2022-12-17T09:57:34.474Z,-2.18
2022-12-17T10:03:06.034Z,-2.36
2022-12-17T10:08:37.733Z,-2.11
2022-12-17T10:14:09.462Z,-2.29
2022-12-17T10:19:41.153Z,-2.18
2022-12-17T10:25:12.899Z,-2.02
2022-12-17T10:30:44.638Z,-2.14
2022-12-17T10:36:16.349Z,-2.16
2022-12-17T10:41:48.202Z,-2.9
2022-12-17T10:47:19.867Z,-2.89
2022-12-17T10:52:51.671Z,-2.89
2022-12-17T10:58:27.828Z,-2.03
2022-12-17T11:03:59.473Z,-1.84
2022-12-17T11:09:41.683Z,-2.04
2022-12-17T11:15:02.994Z,-2.05
2022-12-17T11:20:34.584Z,-1.48
2022-12-17T11:26:06.598Z,-1.85
2022-12-17T11:31:38.052Z,-2.01
2022-12-17T11:37:09.689Z,-1.61
2022-12-17T11:42:41.418Z,-1.2
2022-12-17T11:48:13.181Z,-1.3
2022-12-17T11:53:44.865Z,-1.56
2022-12-17T11:59:21.400Z,-0.91
2022-12-17T12:04:53.095Z,-1.04
2022-12-17T12:10:24.660Z,-0.96
2022-12-17T12:15:56.401Z,-1.19
2022-12-17T12:21:27.875Z,-1.17
2022-12-17T12:26:59.635Z,-1.23
2022-12-17T12:32:31.335Z,-1.06
2022-12-17T12:38:03.768Z,-1.61
2022-12-17T12:43:34.774Z,-1.86
2022-12-17T12:49:06.543Z,-1.49
2022-12-17T12:54:39.098Z,-1.38
2022-12-17T13:00:16.666Z,-1.42
2022-12-17T13:05:48.344Z,-1.42
2022-12-17T13:11:19.830Z,-1.39
2022-12-17T13:16:51.703Z,-1.5
2022-12-17T13:22:24.373Z,-1.89
2022-12-17T13:27:55.238Z,-1.74
2022-12-17T13:33:27.176Z,-1.9
2022-12-17T13:38:58.408Z,-1.87
2022-12-17T13:44:30.161Z,-1.79
2022-12-17T13:55:33.607Z,-2.07
2022-12-17T14:01:09.712Z,-1.92
2022-12-17T14:06:41.419Z,-2.21
2022-12-17T14:12:13.388Z,-2.08
2022-12-17T14:17:44.858Z,-2.18
2022-12-17T14:23:16.548Z,-2.07
2022-12-17T14:28:50.381Z,-1.9
2022-12-17T14:34:20.042Z,-1.99
2022-12-17T14:39:51.738Z,-1.92
2022-12-17T14:45:23.864Z,-1.95
2022-12-17T14:50:55.184Z,-1.92
2022-12-17T14:56:27.160Z,-2.27
2022-12-17T15:02:03.187Z,-1.92
2022-12-17T15:07:35.018Z,-1.84
2022-12-17T15:13:06.602Z,-1.76
2022-12-17T15:18:39.013Z,-1.81
2022-12-17T15:24:10.211Z,-1.91
2022-12-17T15:29:41.732Z,-2.02
2022-12-17T15:35:13.442Z,-2.22
2022-12-17T15:40:45.374Z,-2.31
2022-12-17T15:46:16.942Z,-2.36
2022-12-17T15:51:48.626Z,-2.48
2022-12-17T15:57:20.343Z,-2.58
2022-12-17T16:02:56.637Z,-2.65
2022-12-17T16:08:28.553Z,-2.81
2022-12-17T16:13:59.923Z,-2.87
2022-12-17T16:19:31.844Z,-2.98
2022-12-17T16:25:03.356Z,-3.03
2022-12-17T16:30:35.265Z,-3.1
2022-12-17T16:36:06.808Z,-3.1
2022-12-17T16:41:38.599Z,-3.1
2022-12-17T16:47:10.825Z,-3.15
2022-12-17T16:52:41.915Z,-3.2
2022-12-17T16:58:13.805Z,-3.24
2022-12-17T17:03:49.869Z,-3.37
2022-12-17T17:09:22.052Z,-3.33
2022-12-17T17:14:53.227Z,-3.35
2022-12-17T17:20:25.035Z,-3.35
2022-12-17T17:25:57.872Z,-3.36
2022-12-17T17:31:53.395Z,-3.33
2022-12-17T17:37:00.762Z,-3.56
2022-12-17T17:42:32.043Z,-3.42
2022-12-17T17:48:04.062Z,-3.6
2022-12-17T17:53:35.511Z,-3.61
2022-12-17T17:59:07.231Z,-3.61
2022-12-17T18:04:45.366Z,-3.58
2022-12-17T18:10:17.335Z,-3.47
2022-12-17T18:15:49.071Z,-3.47
2022-12-17T18:21:20.745Z,-3.66
2022-12-17T18:26:52.214Z,-3.75
2022-12-17T18:32:24.202Z,-3.86
2022-12-17T18:37:55.654Z,-3.91
2022-12-17T18:43:27.544Z,-3.93
2022-12-17T18:48:59.121Z,-3.89
2022-12-17T18:54:30.777Z,-4.01
2022-12-17T19:00:02.670Z,-4.17
2022-12-17T19:05:45.334Z,-4.19
2022-12-17T19:11:13.238Z,-4.21
2022-12-17T19:16:44.376Z,-4.22
2022-12-17T19:22:16.043Z,-4.32
2022-12-17T19:27:47.519Z,-4.37
2022-12-17T19:33:19.251Z,-4.39
2022-12-17T19:38:51.254Z,-4.37
2022-12-17T19:44:22.690Z,-4.35
2022-12-17T19:49:54.406Z,-4.4
2022-12-17T19:55:26.434Z,-4.49
2022-12-17T20:00:57.896Z,-4.56
2022-12-17T20:06:34.229Z,-4.54
2022-12-17T20:12:05.739Z,-4.63
2022-12-17T20:17:37.443Z,-4.62
2022-12-17T20:23:09.403Z,-4.59
2022-12-17T20:28:41.572Z,-4.6
2022-12-17T20:34:12.587Z,-4.82
2022-12-17T20:39:44.727Z,-4.61
2022-12-17T20:45:16.931Z,-4.83
2022-12-17T20:50:48.123Z,-5.08
2022-12-17T20:56:19.832Z,-5.11
2022-12-17T21:01:55.782Z,-4.81
2022-12-17T21:07:27.492Z,-4.84
2022-12-17T21:12:59.060Z,-4.94
2022-12-17T21:18:30.751Z,-5.02
2022-12-17T21:24:02.528Z,-5.05
2022-12-17T21:29:34.419Z,-5.06
2022-12-17T21:35:06.174Z,-4.85
2022-12-17T21:40:37.846Z,-4.84
2022-12-17T21:46:09.636Z,-4.91
2022-12-17T21:51:41.367Z,-4.91
2022-12-17T21:57:13.130Z,-5.02
2022-12-17T22:02:45.018Z,-4.84
2022-12-17T22:08:20.851Z,-4.89
2022-12-17T22:13:52.451Z,-5.34
2022-12-17T22:19:24.341Z,-5.05
2022-12-17T22:24:56.125Z,-5.09
2022-12-17T22:30:27.742Z,-5.14
2022-12-17T22:37:02.985Z,-5.17
2022-12-17T22:37:46.893Z,-5.17
2022-12-17T22:44:28.758Z,-4.93
2022-12-17T22:44:32.578Z,-4.93
2022-12-17T22:47:02.895Z,-4.8
2022-12-17T22:52:34.548Z,-4.79
2022-12-17T22:58:06.403Z,-4.85
2022-12-17T23:03:38.571Z,-4.85
2022-12-17T23:09:14.135Z,-4.81
2022-12-17T23:14:45.864Z,-4.86
2022-12-17T23:20:17.800Z,-4.96
2022-12-17T23:25:49.451Z,-5.03
2022-12-17T23:31:21.334Z,-5.22
2022-12-17T23:36:52.918Z,-5.32
2022-12-17T23:42:24.466Z,-5.38
2022-12-17T23:47:56.195Z,-5.48
2022-12-17T23:53:28.096Z,-5.43
2022-12-17T23:58:59.775Z,-5.42
